The Lakes, Nevada
Current Conditions -  °F | °C
As of 7:53 PM on Wednesday 26 Nov 2014 (Local Time) from KVGT Reporting Station
Clear Clear  
Wind Chill: 11°   Ceiling: Unl
Heat Index: 11°   Visibility: 10mi
Dew Point: -6°   Wind: 3mph
Humidity: 31%   Direction: 330°NNW
Pressure: 30.3"   Gusts: NA
Location:  36.14°N, 115.29°W
Report Text: KVGT 270353Z 33003KT 10SM CLR 11/M06 A3030 RMK AO2 SLP280 T01111056
Loading
Personal Weather Stations






























Interactive Weather Map New forecast layout! Learn more

10-Day Weather Forecast

Advertisements
Track Severe Weather on mobile